Chicago O'Hare International Airport
KORD : now visible

Airfield :











YOU CAN JOIN US ON...

 
LOGIN :

Register | Disclaimer

   EN    FR    IT 

 









Legend :    VFR   Marginal VFR   IFR   Intensive IFR   Very Intensive IFR
Visi :
Ceiling :
>= 8 km
>= 3000ft
5 to 8 km
1000 to 3000 ft
1500m to 5 km
500 to 1000 ft
800 to 1500m
200 to 500 ft
< 800m
< 200 ft
Symbols :   Thunderstorms  Fog  Heavy snow  Heavy precipitations  Wind > 20 kt






- Airport Elevation : 672 ft
- IATA code : ORD


KORD - Chicago O'Hare International

CURRENT METAR :
  • 082051Z 18009KT 10SM SCT043 BKN055 31/20 A3007 RMK AO2 SLP177 T03110200 56009

EXPIRED METARs :
  • 081951Z 19012KT 10SM BKN045 BKN250 31/19 A3008 RMK AO2 SLP179 T03060194
  • 081851Z 20010G16KT 10SM SCT040 SCT250 30/18 A3009 RMK AO2 SLP183 T03000183

TAF KORD
Valid from the 08 at 21:00 until the 10 at 00:00 UTC


082059Z 0821/0924 20012G20KT P6SM BKN050
FM090200 18007KT P6SM SCT050
FM091800 19010G15KT P6SM SCT250
KZAU FIR / North America



MET'MAP, your aeronautical weather chart ! - Copyright ORBIFLY December 2007 - Disclaimer

ORBIFLY MET'MAP TEAM :

Programming & Development : Alexandra Zaïnal
Concept & original design : Baudouin d'Aumeries
Assistance for programming : Marc-Olivier Méhu
Technical & hardware support : Manuel Goepfert

Contact : metmap@orbifly.com




SOURCES & CREDITS :

   NOAA       Earth
Advisory